createdAt,value
2023-05-25T00:04:04.148Z,44.54
2023-05-25T00:07:07.230Z,44.75
2023-05-25T00:10:10.575Z,44.74
2023-05-25T00:13:13.396Z,44.77
2023-05-25T00:16:17.698Z,44.65
2023-05-25T00:19:20.798Z,44.75
2023-05-25T00:22:23.712Z,44.66
2023-05-25T00:25:26.580Z,44.72
2023-05-25T00:28:29.567Z,44.78
2023-05-25T00:31:35.498Z,44.72
2023-05-25T00:34:38.650Z,44.83
2023-05-25T00:37:42.129Z,44.75
2023-05-25T00:40:45.412Z,44.74
2023-05-25T00:43:48.651Z,44.82
2023-05-25T00:46:53.636Z,44.83
2023-05-25T00:49:56.523Z,44.74
2023-05-25T00:52:59.459Z,44.84
2023-05-25T00:56:09.488Z,44.76
2023-05-25T00:59:16.636Z,44.75
2023-05-25T01:02:21.591Z,44.80
2023-05-25T01:05:29.080Z,44.84
2023-05-25T01:08:36.026Z,44.78
2023-05-25T01:11:43.411Z,44.82
2023-05-25T01:14:48.247Z,44.88
2023-05-25T01:17:54.179Z,44.87
2023-05-25T01:21:12.992Z,44.85
2023-05-25T01:24:22.545Z,44.79
2023-05-25T01:27:32.432Z,44.85
2023-05-25T01:30:37.695Z,44.82
2023-05-25T01:33:40.954Z,44.89
2023-05-25T01:36:45.465Z,44.80
2023-05-25T01:39:48.317Z,44.88
2023-05-25T01:42:51.215Z,44.87
2023-05-25T01:45:59.156Z,44.87
2023-05-25T01:49:10.073Z,44.87
2023-05-25T01:52:23.089Z,44.89
2023-05-25T01:55:28.242Z,44.86
2023-05-25T01:58:36.498Z,44.82
2023-05-25T02:01:42.094Z,44.79
2023-05-25T02:04:45.742Z,44.77
2023-05-25T02:07:50.419Z,44.87
2023-05-25T02:10:53.668Z,44.95
2023-05-25T02:13:56.654Z,44.89
2023-05-25T02:17:02.052Z,44.87
2023-05-25T02:20:06.301Z,44.87
2023-05-25T02:23:10.619Z,44.90
2023-05-25T02:26:14.503Z,44.85
2023-05-25T02:29:17.627Z,44.88
2023-05-25T02:32:21.245Z,44.96
2023-05-25T02:35:24.464Z,44.86
2023-05-25T02:38:28.902Z,44.81
2023-05-25T02:41:31.760Z,44.92
2023-05-25T02:44:34.925Z,44.91
2023-05-25T02:47:38.049Z,44.86
2023-05-25T02:50:40.996Z,44.87
2023-05-25T02:53:49.348Z,44.95
2023-05-25T02:56:52.413Z,44.92
2023-05-25T02:59:55.356Z,44.96
2023-05-25T03:02:58.324Z,44.93
2023-05-25T03:06:01.427Z,44.93
2023-05-25T03:09:07.106Z,44.85
2023-05-25T03:12:10.234Z,44.94
2023-05-25T03:15:13.894Z,44.84
2023-05-25T03:18:16.961Z,44.84
2023-05-25T03:21:20.064Z,44.93
2023-05-25T03:24:24.662Z,44.85
2023-05-25T03:27:27.547Z,44.91
2023-05-25T03:30:31.372Z,44.94
2023-05-25T03:33:34.915Z,44.95
2023-05-25T03:36:38.936Z,44.88
2023-05-25T03:39:43.488Z,44.88
2023-05-25T03:42:46.773Z,44.92
2023-05-25T03:45:49.704Z,44.96
2023-05-25T03:48:53.186Z,44.92
2023-05-25T03:51:56.225Z,45.02
2023-05-25T03:55:01.668Z,44.88
2023-05-25T03:58:05.070Z,45.06
2023-05-25T04:01:09.717Z,45.07
2023-05-25T04:04:12.627Z,45.08
2023-05-25T04:07:15.872Z,44.97
2023-05-25T04:10:20.192Z,45.01
2023-05-25T04:13:23.063Z,45.02
2023-05-25T04:16:26.133Z,45.08
2023-05-25T04:19:29.013Z,45.00
2023-05-25T04:22:33.534Z,45.02
2023-05-25T04:25:39.059Z,45.14
2023-05-25T04:28:41.987Z,45.06
2023-05-25T04:31:58.022Z,45.00
2023-05-25T04:35:05.530Z,45.00
2023-05-25T04:38:17.663Z,45.06
2023-05-25T04:41:22.233Z,44.98
2023-05-25T04:44:29.825Z,44.90
2023-05-25T04:47:34.764Z,45.01
2023-05-25T04:50:40.155Z,45.17
2023-05-25T04:53:44.412Z,45.12
2023-05-25T04:56:48.866Z,45.09
2023-05-25T04:59:51.830Z,45.07
2023-05-25T05:02:56.429Z,45.25
2023-05-25T05:05:59.442Z,45.08
2023-05-25T05:09:05.796Z,45.06
2023-05-25T05:12:12.088Z,45.23
2023-05-25T05:15:20.295Z,45.05
2023-05-25T05:18:25.692Z,45.18
2023-05-25T05:21:28.882Z,45.24
2023-05-25T05:24:31.756Z,45.28
2023-05-25T05:27:36.397Z,45.25
2023-05-25T05:30:47.570Z,45.22
2023-05-25T05:33:50.799Z,45.24
2023-05-25T05:36:57.894Z,45.28
2023-05-25T05:40:02.825Z,45.23
2023-05-25T05:43:07.402Z,45.16
2023-05-25T05:46:10.686Z,45.27
2023-05-25T05:49:13.722Z,45.31
2023-05-25T05:52:16.832Z,45.24
2023-05-25T05:55:20.279Z,45.19
2023-05-25T05:58:27.644Z,45.19
2023-05-25T06:01:30.512Z,45.31
2023-05-25T06:04:34.066Z,45.22
2023-05-25T06:07:38.395Z,45.34
2023-05-25T06:10:42.388Z,45.31
2023-05-25T06:13:46.836Z,45.29
2023-05-25T06:16:51.305Z,45.35
2023-05-25T06:19:54.323Z,45.28
2023-05-25T06:22:57.516Z,45.25
2023-05-25T06:26:05.329Z,45.28
2023-05-25T06:29:09.596Z,45.21
2023-05-25T06:32:12.645Z,45.29
2023-05-25T06:35:20.013Z,45.30
2023-05-25T06:38:25.787Z,45.37
2023-05-25T06:41:29.850Z,45.16
2023-05-25T06:44:34.595Z,45.22
2023-05-25T06:47:38.912Z,45.29
2023-05-25T06:50:42.380Z,45.21
2023-05-25T06:53:45.299Z,45.16
2023-05-25T06:56:48.188Z,45.27
2023-05-25T06:59:52.441Z,45.24
2023-05-25T07:02:55.446Z,45.19
2023-05-25T07:05:58.479Z,45.27
2023-05-25T07:09:01.329Z,45.26
2023-05-25T07:12:07.275Z,45.25
2023-05-25T07:15:13.481Z,45.24
2023-05-25T07:18:16.555Z,45.23
2023-05-25T07:21:19.407Z,45.29
2023-05-25T07:24:22.249Z,45.25
2023-05-25T07:27:25.517Z,45.33
2023-05-25T07:30:29.809Z,45.24
2023-05-25T07:33:32.653Z,45.27
2023-05-25T07:36:36.083Z,45.29
2023-05-25T07:39:40.490Z,45.21
2023-05-25T07:42:43.389Z,45.21
2023-05-25T07:45:47.650Z,45.23
2023-05-25T07:48:50.590Z,45.28
2023-05-25T07:51:53.452Z,45.29
2023-05-25T07:54:56.369Z,45.17
2023-05-25T07:57:59.518Z,45.16
2023-05-25T08:01:04.471Z,45.16
2023-05-25T08:04:07.413Z,45.22
2023-05-25T08:07:10.544Z,45.26
2023-05-25T08:10:13.483Z,45.25
2023-05-25T08:13:16.480Z,45.22
2023-05-25T08:16:20.881Z,45.34
2023-05-25T08:19:23.796Z,45.20
2023-05-25T08:22:27.363Z,45.20
2023-05-25T08:25:30.243Z,45.19
2023-05-25T08:28:33.130Z,45.25
2023-05-25T08:31:37.499Z,45.18
2023-05-25T08:34:40.564Z,45.31
2023-05-25T08:37:44.310Z,45.48
2023-05-25T08:40:48.630Z,45.34
2023-05-25T08:43:51.623Z,45.30
2023-05-25T08:46:57.919Z,45.23
2023-05-25T08:50:04.053Z,45.36
2023-05-25T08:53:11.799Z,45.38
2023-05-25T08:56:19.197Z,45.31
2023-05-25T08:59:30.179Z,45.23
2023-05-25T09:02:39.964Z,45.35
2023-05-25T09:05:43.509Z,45.32
2023-05-25T09:08:47.460Z,45.30
2023-05-25T09:11:50.497Z,45.21
2023-05-25T09:14:54.608Z,45.42
2023-05-25T09:17:59.388Z,45.36
2023-05-25T09:21:03.001Z,45.29
2023-05-25T09:24:06.950Z,45.31
2023-05-25T09:27:13.026Z,45.38
2023-05-25T09:30:16.735Z,45.31
2023-05-25T09:33:21.453Z,45.31
2023-05-25T09:36:24.622Z,45.34
2023-05-25T09:39:28.125Z,45.34
2023-05-25T09:42:31.049Z,45.31
2023-05-25T09:45:37.961Z,45.29
2023-05-25T09:48:43.252Z,45.32
2023-05-25T09:51:46.408Z,45.37
2023-05-25T09:54:50.094Z,45.36
2023-05-25T09:57:54.761Z,45.32
2023-05-25T10:00:58.228Z,45.24
2023-05-25T10:04:04.598Z,45.36
2023-05-25T10:07:09.186Z,45.32
2023-05-25T10:10:15.368Z,45.41
2023-05-25T10:13:23.253Z,45.42
2023-05-25T10:16:29.481Z,45.32
2023-05-25T10:19:41.381Z,45.42
2023-05-25T10:22:49.204Z,45.28
2023-05-25T10:25:57.822Z,45.33
2023-05-25T10:29:04.562Z,45.43
2023-05-25T10:32:08.688Z,45.30
2023-05-25T10:35:14.652Z,45.10
2023-05-25T10:38:18.333Z,45.06
2023-05-25T10:41:21.881Z,44.92
2023-05-25T10:44:26.027Z,44.76
2023-05-25T10:47:29.396Z,44.66
2023-05-25T10:50:36.946Z,44.47
2023-05-25T10:53:39.878Z,44.42
2023-05-25T10:57:09.514Z,44.61
2023-05-25T11:00:15.248Z,44.15
2023-05-25T11:03:20.692Z,44.07
2023-05-25T11:07:03.822Z,44.17
2023-05-25T11:10:07.688Z,44.01
2023-05-25T11:13:40.815Z,43.94
2023-05-25T11:16:44.243Z,43.94
2023-05-25T11:19:50.963Z,44.12
2023-05-25T11:22:57.592Z,43.94
2023-05-25T11:26:06.725Z,43.81
2023-05-25T11:29:14.353Z,43.90
2023-05-25T11:32:17.513Z,43.75
2023-05-25T11:35:20.614Z,43.82
2023-05-25T11:38:25.945Z,43.65
2023-05-25T11:41:29.190Z,43.48
2023-05-25T11:44:34.493Z,43.44
2023-05-25T11:47:38.198Z,43.38
2023-05-25T11:50:41.237Z,43.37
2023-05-25T11:53:46.563Z,43.28
2023-05-25T11:56:49.433Z,43.69
2023-05-25T11:59:54.154Z,43.56
2023-05-25T12:02:58.098Z,43.55
2023-05-25T12:06:02.420Z,43.50
2023-05-25T12:09:12.828Z,43.58
2023-05-25T12:12:15.896Z,43.45
2023-05-25T12:15:22.816Z,43.50
2023-05-25T12:18:25.993Z,43.62
2023-05-25T12:21:29.497Z,43.55
2023-05-25T12:24:33.812Z,43.49
2023-05-25T12:27:36.804Z,43.66
2023-05-25T12:30:39.920Z,43.57
2023-05-25T12:33:42.854Z,43.52
2023-05-25T12:36:50.690Z,43.58
2023-05-25T12:39:55.567Z,43.65
2023-05-25T12:42:58.961Z,43.65
2023-05-25T12:46:01.972Z,43.62
2023-05-25T12:49:04.958Z,43.73
2023-05-25T12:52:08.165Z,43.65
2023-05-25T12:55:25.740Z,43.58
2023-05-25T12:58:30.173Z,43.61
2023-05-25T13:01:34.005Z,43.62
2023-05-25T13:04:38.831Z,43.63
2023-05-25T13:07:42.351Z,43.73
2023-05-25T13:10:48.941Z,43.76
2023-05-25T13:13:53.242Z,43.76
2023-05-25T13:16:57.766Z,43.79
2023-05-25T13:20:01.017Z,43.79
2023-05-25T13:23:05.963Z,43.71
2023-05-25T13:26:10.616Z,43.99
2023-05-25T13:29:13.711Z,43.86
2023-05-25T13:32:16.642Z,43.87
2023-05-25T13:35:34.073Z,44.05
2023-05-25T13:38:38.163Z,43.98
2023-05-25T13:41:43.797Z,43.92
2023-05-25T13:44:46.703Z,44.01
2023-05-25T13:47:49.909Z,43.98
2023-05-25T13:50:53.008Z,44.12
2023-05-25T13:53:55.868Z,44.05
2023-05-25T13:57:00.223Z,44.14
2023-05-25T14:00:03.111Z,44.21
2023-05-25T14:03:09.587Z,44.28
2023-05-25T14:06:12.608Z,44.23
2023-05-25T14:09:16.198Z,44.26
2023-05-25T14:12:20.446Z,44.23
2023-05-25T14:15:23.291Z,44.33
2023-05-25T14:18:26.149Z,44.31
2023-05-25T14:21:29.721Z,44.26
2023-05-25T14:24:32.627Z,44.32
2023-05-25T14:27:36.898Z,44.31
2023-05-25T14:30:39.751Z,44.29
2023-05-25T14:33:43.197Z,44.31
2023-05-25T14:36:46.211Z,44.35
2023-05-25T14:39:49.040Z,44.39
2023-05-25T14:42:55.505Z,44.43
2023-05-25T14:45:58.576Z,44.38
2023-05-25T14:49:01.439Z,44.40
2023-05-25T14:52:04.662Z,44.40
2023-05-25T14:55:09.074Z,44.52
2023-05-25T14:58:13.370Z,44.50
2023-05-25T15:01:16.261Z,44.48
2023-05-25T15:04:19.420Z,44.54
2023-05-25T15:07:22.612Z,44.58
2023-05-25T15:10:25.506Z,44.49
2023-05-25T15:13:29.733Z,44.56
2023-05-25T15:16:32.679Z,44.60
2023-05-25T15:19:35.626Z,44.60
2023-05-25T15:22:38.504Z,44.45
2023-05-25T15:25:41.362Z,44.63
2023-05-25T15:28:45.594Z,44.59
2023-05-25T15:31:51.837Z,44.71
2023-05-25T15:34:54.744Z,44.69
2023-05-25T15:37:57.602Z,44.68
2023-05-25T15:41:00.469Z,44.71
2023-05-25T15:44:08.208Z,44.73
2023-05-25T15:47:11.135Z,44.63
2023-05-25T15:50:14.107Z,44.79
2023-05-25T15:53:17.122Z,44.81
2023-05-25T15:56:20.287Z,44.91
2023-05-25T15:59:24.554Z,45.06
2023-05-25T16:02:27.499Z,45.04
2023-05-25T16:05:30.906Z,45.22
2023-05-25T16:08:33.835Z,45.28
2023-05-25T16:11:36.793Z,45.22
2023-05-25T16:14:40.999Z,45.26
2023-05-25T16:17:44.011Z,45.02
2023-05-25T16:20:47.120Z,45.02
2023-05-25T16:23:50.139Z,45.08
2023-05-25T16:26:53.085Z,45.03
2023-05-25T16:29:57.392Z,45.01
2023-05-25T16:33:00.430Z,45.06
2023-05-25T16:36:03.362Z,45.12
2023-05-25T16:39:06.374Z,45.17
2023-05-25T16:42:09.249Z,45.08
2023-05-25T16:45:13.450Z,45.10
2023-05-25T16:48:16.332Z,45.12
2023-05-25T16:51:19.218Z,45.12
2023-05-25T16:54:22.311Z,45.20
2023-05-25T16:57:25.161Z,45.11
2023-05-25T17:00:29.391Z,45.16
2023-05-25T17:03:32.340Z,45.21
2023-05-25T17:06:36.669Z,45.36
2023-05-25T17:09:39.484Z,45.77
2023-05-25T17:12:42.398Z,46.06
2023-05-25T17:15:47.389Z,45.71
2023-05-25T17:18:50.496Z,45.52
2023-05-25T17:21:53.400Z,45.59
2023-05-25T17:24:56.335Z,45.64
2023-05-25T17:27:59.197Z,45.54
2023-05-25T17:31:03.475Z,45.66
2023-05-25T17:34:06.376Z,45.74
2023-05-25T17:37:09.226Z,45.69
2023-05-25T17:40:13.888Z,45.70
2023-05-25T17:43:16.748Z,45.65
2023-05-25T17:46:21.597Z,45.66
2023-05-25T17:49:24.541Z,45.60
2023-05-25T17:52:29.294Z,45.66
2023-05-25T17:55:32.154Z,45.61
2023-05-25T17:58:35.028Z,45.52
2023-05-25T18:01:39.804Z,45.55
2023-05-25T18:04:42.827Z,45.62
2023-05-25T18:07:45.861Z,45.57
2023-05-25T18:10:50.187Z,45.46
2023-05-25T18:13:53.085Z,45.64
2023-05-25T18:16:57.328Z,45.60
2023-05-25T18:20:00.380Z,45.48
2023-05-25T18:23:04.955Z,45.58
2023-05-25T18:26:07.844Z,45.58
2023-05-25T18:29:10.756Z,45.50
2023-05-25T18:32:14.993Z,45.66
2023-05-25T18:35:17.999Z,45.50
2023-05-25T18:38:20.839Z,45.48
2023-05-25T18:41:24.459Z,45.45
2023-05-25T18:44:28.369Z,45.47
2023-05-25T18:47:32.703Z,45.53
2023-05-25T18:50:35.915Z,45.65
2023-05-25T18:53:39.552Z,45.55
2023-05-25T18:56:42.582Z,45.54
2023-05-25T18:59:45.404Z,45.55
2023-05-25T19:02:49.704Z,45.58
2023-05-25T19:05:52.672Z,45.37
2023-05-25T19:08:55.764Z,45.53
2023-05-25T19:11:58.607Z,45.50
2023-05-25T19:15:01.517Z,45.55
2023-05-25T19:18:06.331Z,45.44
2023-05-25T19:21:09.303Z,45.49
2023-05-25T19:24:12.170Z,45.50
2023-05-25T19:27:15.111Z,45.50
2023-05-25T19:30:18.436Z,45.57
2023-05-25T19:33:22.721Z,45.48
2023-05-25T19:36:25.788Z,45.56
2023-05-25T19:39:31.104Z,45.64
2023-05-25T19:42:33.967Z,45.59
2023-05-25T19:45:36.866Z,45.64
2023-05-25T19:48:41.561Z,45.61
2023-05-25T19:51:44.439Z,45.68
2023-05-25T19:54:47.369Z,45.74
2023-05-25T19:57:50.578Z,45.80
2023-05-25T20:00:53.690Z,45.75
2023-05-25T20:03:58.006Z,45.79
2023-05-25T20:07:01.040Z,45.70
2023-05-25T20:10:04.108Z,45.71
2023-05-25T20:13:07.441Z,45.81
2023-05-25T20:16:10.779Z,45.81
2023-05-25T20:19:15.256Z,45.72
2023-05-25T20:22:18.114Z,45.75
2023-05-25T20:25:21.051Z,45.46
2023-05-25T20:28:23.883Z,45.61
2023-05-25T20:31:26.798Z,45.70
2023-05-25T20:34:31.095Z,45.60
2023-05-25T20:37:33.924Z,45.63
2023-05-25T20:40:36.743Z,45.67
2023-05-25T20:43:39.632Z,45.73
2023-05-25T20:46:42.609Z,45.51
2023-05-25T20:49:46.880Z,45.66
2023-05-25T20:52:49.776Z,45.65
2023-05-25T20:55:52.978Z,45.59
2023-05-25T20:58:57.646Z,45.60
2023-05-25T21:02:00.597Z,45.58
2023-05-25T21:05:05.172Z,45.75
2023-05-25T21:08:08.071Z,45.67
2023-05-25T21:11:10.940Z,45.54
2023-05-25T21:14:13.754Z,45.74
2023-05-25T21:17:18.675Z,45.64
2023-05-25T21:20:22.981Z,45.57
2023-05-25T21:23:28.620Z,45.71
2023-05-25T21:26:32.013Z,45.58
2023-05-25T21:29:34.836Z,45.70
2023-05-25T21:32:37.844Z,45.66
2023-05-25T21:35:42.105Z,45.62
2023-05-25T21:38:46.149Z,45.59
2023-05-25T21:41:48.999Z,45.46
2023-05-25T21:44:51.822Z,45.48
2023-05-25T21:47:54.691Z,45.49
2023-05-25T21:50:59.194Z,45.49
2023-05-25T21:54:02.042Z,45.51
2023-05-25T21:57:05.279Z,45.44
2023-05-25T22:00:12.666Z,45.45
2023-05-25T22:03:15.914Z,45.49
2023-05-25T22:06:20.351Z,45.54
2023-05-25T22:09:23.277Z,45.59
2023-05-25T22:12:26.142Z,45.59
2023-05-25T22:15:28.995Z,45.49
2023-05-25T22:18:31.841Z,45.60
2023-05-25T22:21:37.275Z,45.66
2023-05-25T22:24:40.142Z,45.67
2023-05-25T22:27:42.991Z,45.62
2023-05-25T22:30:45.857Z,45.47
2023-05-25T22:33:48.736Z,45.55
2023-05-25T22:36:52.926Z,45.37
2023-05-25T22:39:55.834Z,45.47
2023-05-25T22:42:58.674Z,45.50
2023-05-25T22:46:01.927Z,45.50
2023-05-25T22:49:04.856Z,45.48
2023-05-25T22:52:10.038Z,45.53
2023-05-25T22:55:12.913Z,45.54
2023-05-25T22:58:15.888Z,45.40
2023-05-25T23:01:18.795Z,45.48
2023-05-25T23:04:21.787Z,45.52
2023-05-25T23:07:26.126Z,45.62
2023-05-25T23:10:28.968Z,45.53
2023-05-25T23:13:32.007Z,45.64
2023-05-25T23:16:34.844Z,45.57
2023-05-25T23:19:38.679Z,45.54
2023-05-25T23:22:43.369Z,45.47
2023-05-25T23:25:46.536Z,45.44
2023-05-25T23:28:49.920Z,45.59
2023-05-25T23:31:52.949Z,45.46
2023-05-25T23:34:56.814Z,45.49
2023-05-25T23:38:01.769Z,45.50
2023-05-25T23:41:04.853Z,45.67
2023-05-25T23:44:07.848Z,45.54
2023-05-25T23:47:10.933Z,45.76
2023-05-25T23:50:13.798Z,45.69
2023-05-25T23:53:18.105Z,45.69
2023-05-25T23:56:21.786Z,45.55
2023-05-25T23:59:24.677Z,45.53
